Time;durP1;ratioP1;P1;durP2;ratioP2;P2;SDS_P1;SDS_P2;PMS_P1;PMS_P2;Temp;Humidity;BMP_temperature;BMP_pressure;BME280_temperature;BME280_humidity;BME280_pressure;Samples;Min_cycle;Max_cycle;Signal;HPM_P1;HPM_P2
2021/06/07 00:02:08;;;;;;;20.53;18.53;;;20.10;99.90;;;20.46;58.14;101861.31;4935645;28;99828;-48
2021/06/07 00:04:34;;;;;;;16.43;14.97;;;20.10;99.90;;;20.48;58.12;101859.41;4943514;28;97204;-51
2021/06/07 00:07:01;;;;;;;7.20;6.60;;;20.20;99.90;;;20.50;57.84;101869.09;4940522;28;97374;-51
2021/06/07 00:09:29;;;;;;;19.77;17.80;;;20.20;99.90;;;20.52;57.98;101876.16;4941435;28;97810;-49
2021/06/07 00:12:01;;;;;;;14.27;11.67;;;20.20;99.90;;;20.52;58.26;101881.53;4931865;28;99639;-48
2021/06/07 00:14:31;;;;;;;19.07;17.20;;;20.20;99.90;;;20.50;58.24;101874.44;4948004;28;98381;-50
2021/06/07 00:16:59;;;;;;;20.73;18.77;;;20.20;99.90;;;20.49;58.00;101877.22;4919388;28;97670;-48
2021/06/07 00:19:28;;;;;;;19.83;17.97;;;20.20;99.90;;;20.49;58.33;101886.13;4957650;28;96585;-50
2021/06/07 00:21:54;;;;;;;14.00;12.80;;;20.20;99.90;;;20.48;58.00;101888.88;4931979;28;97836;-49
2021/06/07 00:24:21;;;;;;;23.43;21.13;;;20.20;99.90;;;20.47;58.38;101880.00;4942007;28;96948;-52
2021/06/07 00:26:48;;;;;;;16.77;15.20;;;20.20;99.90;;;20.48;58.28;101879.03;4928870;28;98141;-49
2021/06/07 00:29:15;;;;;;;15.03;13.60;;;20.20;99.90;;;20.49;58.15;101888.78;4949955;28;97045;-49
2021/06/07 00:31:42;;;;;;;7.27;6.73;;;20.20;99.90;;;20.50;58.06;101890.53;4932826;28;97001;-48
2021/06/07 00:34:09;;;;;;;7.23;6.63;;;20.20;99.90;;;20.50;57.89;101874.44;4956666;28;97406;-51
2021/06/07 00:36:36;;;;;;;5.90;5.40;;;20.30;99.90;;;20.53;57.67;101867.16;4942598;28;97121;-48
2021/06/07 00:39:06;;;;;;;18.23;16.50;;;20.30;99.90;;;20.55;57.94;101876.88;4936038;28;97044;-52
2021/06/07 00:41:33;;;;;;;12.60;11.53;;;20.30;99.90;;;20.55;57.81;101876.03;4933888;28;98935;-49
2021/06/07 00:44:03;;;;;;;23.03;20.70;;;20.30;99.90;;;20.56;58.11;101875.94;4929209;28;97880;-50
2021/06/07 00:46:29;;;;;;;21.67;19.60;;;20.30;99.90;;;20.55;58.01;101870.66;4936604;28;97320;-50
2021/06/07 00:48:56;;;;;;;24.10;21.70;;;20.20;99.90;;;20.48;60.54;101870.13;4929814;28;97290;-49
2021/06/07 00:51:22;;;;;;;22.87;20.77;;;20.10;99.90;;;20.44;59.31;101874.81;4950464;28;97798;-49
2021/06/07 00:53:48;;;;;;;22.47;20.37;;;20.10;99.90;;;20.43;59.06;101883.81;4941677;28;98411;-49
2021/06/07 00:56:15;;;;;;;24.50;22.23;;;20.00;99.90;;;20.40;58.61;101870.56;4946673;28;97532;-48
2021/06/07 00:58:46;;;;;;;9.87;9.00;;;20.00;99.90;;;20.39;58.41;101874.16;4923126;28;96936;-50
2021/06/07 01:01:17;;;;;;;18.37;16.57;;;20.00;99.90;;;20.39;58.45;101871.47;4960941;28;98074;-48
2021/06/07 01:03:46;;;;;;;14.27;12.97;;;20.00;99.90;;;20.38;58.10;101864.41;4926783;28;100543;-51
2021/06/07 01:06:12;;;;;;;8.23;7.53;;;20.00;99.90;;;20.39;58.21;101868.81;4938364;28;98426;-48
2021/06/07 01:08:38;;;;;;;15.70;14.23;;;20.00;99.90;;;20.39;58.25;101865.25;4930304;28;97817;-56
2021/06/07 01:11:06;;;;;;;12.77;11.67;;;20.00;99.90;;;20.38;58.66;101866.22;4941112;28;96844;-49
2021/06/07 01:13:33;;;;;;;19.60;17.70;;;20.10;99.90;;;20.38;58.63;101869.75;4946599;28;98463;-50
2021/06/07 01:16:00;;;;;;;14.90;13.60;;;20.00;99.90;;;20.37;58.39;101873.38;4951675;28;97140;-51
2021/06/07 01:18:31;;;;;;;8.80;8.00;;;20.00;99.90;;;20.37;58.28;101878.75;4938212;28;96891;-50
2021/06/07 01:21:02;;;;;;;16.67;15.07;;;20.00;99.90;;;20.39;58.57;101866.13;4933046;28;98037;-48
2021/06/07 01:23:28;;;;;;;20.43;18.27;;;20.10;99.90;;;20.37;58.78;101870.72;4942022;28;98129;-49
2021/06/07 01:25:57;;;;;;;18.40;16.60;;;20.00;99.90;;;20.39;58.28;101871.47;4930319;28;98010;-50
2021/06/07 01:28:23;;;;;;;23.47;21.27;;;20.00;99.90;;;20.37;58.48;101862.66;4930913;28;97112;-49
2021/06/07 01:30:51;;;;;;;24.60;22.20;;;20.00;99.90;;;20.36;58.70;101866.31;4943793;28;97655;-51
2021/06/07 01:33:22;;;;;;;23.17;20.93;;;19.90;99.90;;;20.36;58.30;101866.31;4959667;28;96988;-48
2021/06/07 01:35:52;;;;;;;23.13;20.93;;;20.00;99.90;;;20.36;58.58;101865.44;4928470;28;96898;-49
2021/06/07 01:38:19;;;;;;;23.93;21.43;;;20.00;99.90;;;20.34;58.55;101862.00;4958085;28;96921;-50
2021/06/07 01:40:50;;;;;;;25.53;23.13;;;20.00;99.90;;;20.33;58.69;101861.13;4940228;28;99806;-47
2021/06/07 01:43:15;;;;;;;26.20;23.60;;;20.00;99.90;;;20.35;58.40;101861.03;4963800;28;99210;-51
2021/06/07 01:45:45;;;;;;;16.87;15.10;;;20.00;99.90;;;20.38;58.25;101851.00;4945504;28;96878;-47
2021/06/07 01:48:13;;;;;;;20.07;17.97;;;20.10;99.90;;;20.39;58.45;101855.41;4954038;28;97548;-48
2021/06/07 01:50:40;;;;;;;22.97;20.77;;;20.10;99.90;;;20.36;58.82;101857.41;4926436;28;97219;-50
2021/06/07 01:53:07;;;;;;;22.37;20.23;;;20.00;99.90;;;20.35;58.44;101853.00;4935555;28;97167;-52
2021/06/07 01:55:43;;;;;;;24.30;21.80;;;19.90;99.90;;;20.36;58.61;101855.59;4932702;28;97365;-48
2021/06/07 01:58:10;;;;;;;23.47;21.20;;;20.00;99.90;;;20.34;58.57;101857.50;4937406;28;96909;-52
2021/06/07 02:01:00;;;;;;;23.87;21.47;;;20.00;99.90;;;20.36;58.66;101860.09;4931589;28;98601;-48
2021/06/07 02:03:27;;;;;;;23.40;21.17;;;20.00;99.90;;;20.35;59.28;101859.22;4922508;28;102204;-51
2021/06/07 02:06:00;;;;;;;23.47;21.10;;;20.00;99.90;;;20.34;58.48;101857.50;4942716;28;97738;-51
2021/06/07 02:08:30;;;;;;;22.10;19.87;;;20.00;99.90;;;20.36;58.39;101857.41;4952595;28;97134;-47
2021/06/07 02:11:03;;;;;;;22.27;19.97;;;20.10;99.90;;;20.38;58.41;101851.00;4933017;28;96529;-50
2021/06/07 02:13:29;;;;;;;21.53;19.33;;;20.10;99.90;;;20.37;58.37;101851.94;4928845;28;98696;-48
2021/06/07 02:16:01;;;;;;;21.57;19.47;;;20.10;99.90;;;20.40;58.56;101856.28;4935864;28;97098;-51
2021/06/07 02:18:29;;;;;;;21.50;19.23;;;20.10;99.90;;;20.39;58.34;101855.41;4937599;28;96888;-48
2021/06/07 02:20:55;;;;;;;21.03;18.80;;;20.10;99.90;;;20.40;58.23;101856.28;4929311;28;99514;-49
2021/06/07 02:23:21;;;;;;;20.57;18.37;;;20.10;99.90;;;20.38;58.95;101859.03;4939453;28;97382;-49
2021/06/07 02:25:47;;;;;;;20.47;18.40;;;20.10;99.90;;;20.36;58.96;101855.59;4938049;28;98040;-51
2021/06/07 02:28:15;;;;;;;22.57;20.33;;;20.00;99.90;;;20.36;58.94;101860.94;4936012;28;99097;-49
2021/06/07 02:30:42;;;;;;;21.60;19.40;;;20.00;99.90;;;20.34;58.30;101865.53;4941449;28;100202;-49
2021/06/07 02:33:09;;;;;;;21.10;19.10;;;20.00;99.90;;;20.35;58.22;101864.56;4930914;28;102877;-51
2021/06/07 02:35:36;;;;;;;19.50;17.40;;;20.00;99.90;;;20.38;59.05;101863.53;4934077;28;97363;-52
2021/06/07 02:38:03;;;;;;;23.63;21.00;;;20.10;99.90;;;20.39;58.14;101868.81;4928540;28;97044;-51
2021/06/07 02:40:31;;;;;;;14.70;13.13;;;20.10;99.90;;;20.40;58.05;101867.88;4927730;28;96967;-49
2021/06/07 02:42:59;;;;;;;18.70;16.80;;;20.10;99.90;;;20.41;58.17;101863.38;4927755;28;97383;-49
2021/06/07 02:45:28;;;;;;;21.00;18.87;;;20.10;99.90;;;20.39;58.43;101866.13;4938768;28;97040;-50
2021/06/07 02:47:58;;;;;;;20.90;18.63;;;20.10;99.90;;;20.41;58.37;101858.03;4933477;28;96605;-49
2021/06/07 02:50:28;;;;;;;23.67;18.93;;;20.10;99.90;;;20.37;60.38;101870.72;4948716;28;97455;-51
2021/06/07 02:52:55;;;;;;;20.93;18.83;;;20.10;99.90;;;20.35;59.73;101869.94;4940942;28;99175;-52
2021/06/07 02:55:28;;;;;;;11.53;10.47;;;20.00;99.90;;;20.34;59.08;101868.22;4937301;28;97009;-49
2021/06/07 02:57:55;;;;;;;18.43;16.53;;;20.00;99.90;;;20.32;58.67;101869.25;4928436;28;97244;-48
2021/06/07 03:00:43;;;;;;;22.23;19.93;;;19.90;99.90;;;20.31;58.38;101873.75;4936966;28;97330;-48
2021/06/07 03:03:10;;;;;;;22.10;19.83;;;19.90;99.90;;;20.30;58.79;101872.03;4928212;28;99888;-50
2021/06/07 03:05:38;;;;;;;22.53;20.13;;;19.90;99.90;;;20.30;58.79;101865.81;4937722;28;96951;-49
2021/06/07 03:08:04;;;;;;;21.73;19.43;;;20.00;99.90;;;20.31;58.63;101860.34;4937770;28;96720;-49
2021/06/07 03:10:31;;;;;;;9.57;8.73;;;20.00;99.90;;;20.30;58.64;101869.34;4940688;28;98638;-47
2021/06/07 03:12:58;;;;;;;21.27;19.07;;;20.00;99.90;;;20.29;59.61;101870.31;4933897;28;98032;-48
2021/06/07 03:15:24;;;;;;;17.67;15.90;;;19.90;99.90;;;20.32;58.73;101869.25;4939325;28;96874;-51
2021/06/07 03:17:52;;;;;;;22.20;19.80;;;20.00;99.90;;;20.31;59.53;101873.75;4946520;28;97270;-52
2021/06/07 03:20:25;;;;;;;21.67;19.40;;;20.00;99.90;;;20.30;59.56;101872.03;4942615;28;99325;-53
2021/06/07 03:22:56;;;;;;;20.07;18.00;;;20.00;99.90;;;20.30;58.32;101866.66;4933536;28;97196;-51
2021/06/07 03:25:22;;;;;;;19.63;17.73;;;20.00;99.90;;;20.29;59.16;101867.63;4931385;28;96843;-52
2021/06/07 03:27:48;;;;;;;19.70;17.67;;;19.90;99.90;;;20.27;58.69;101876.72;4932916;28;96949;-52
2021/06/07 03:30:15;;;;;;;20.97;18.87;;;19.90;99.90;;;20.24;59.73;101869.69;4941721;28;100100;-49
2021/06/07 03:32:42;;;;;;;18.13;16.47;;;19.80;99.90;;;20.24;58.68;101872.34;4929265;28;97383;-52
2021/06/07 03:35:12;;;;;;;17.80;16.00;;;19.80;99.90;;;20.25;58.78;101863.38;4929831;28;97004;-49
2021/06/07 03:37:39;;;;;;;21.63;19.43;;;19.80;99.90;;;20.22;59.59;101863.53;4951547;28;97956;-56
2021/06/07 03:40:16;;;;;;;22.97;20.67;;;19.80;99.90;;;20.24;59.06;101871.50;4922127;28;97940;-53
2021/06/07 03:42:42;;;;;;;7.53;6.90;;;19.80;99.90;;;20.24;58.88;101861.63;4933096;28;96955;-53
2021/06/07 03:45:10;;;;;;;14.97;13.57;;;19.80;99.90;;;20.24;58.50;101867.00;4941148;28;97287;-51
2021/06/07 03:47:36;;;;;;;20.10;18.20;;;19.90;99.90;;;20.23;60.37;101859.06;4940261;28;97228;-52
2021/06/07 03:50:08;;;;;;;22.70;20.30;;;19.90;99.90;;;20.24;58.62;101861.63;4928963;28;114519;-49
2021/06/07 03:52:34;;;;;;;6.23;5.73;;;19.90;99.90;;;20.22;58.55;101863.53;4946860;28;98002;-51
2021/06/07 03:55:02;;;;;;;21.30;19.27;;;19.80;99.90;;;20.20;59.06;101865.47;4942921;28;97469;-48
2021/06/07 03:57:28;;;;;;;23.10;20.80;;;19.80;99.90;;;20.17;58.77;101871.00;4952010;28;97247;-52
2021/06/07 03:59:54;;;;;;;26.53;21.73;;;19.80;99.90;;;20.15;59.93;101868.41;4961921;28;98421;-49
2021/06/07 04:02:21;;;;;;;8.17;7.43;;;19.70;99.90;;;20.16;58.88;101869.28;4935380;28;97483;-52
2021/06/07 04:04:47;;;;;;;14.50;13.20;;;19.70;99.90;;;20.16;58.99;101863.91;4937195;28;97460;-53
2021/06/07 04:07:13;;;;;;;21.07;18.97;;;19.70;99.90;;;20.13;59.27;101869.44;4934425;28;97474;-48
2021/06/07 04:09:40;;;;;;;24.57;22.13;;;19.60;99.90;;;20.12;60.40;101873.94;4947866;28;97165;-56
2021/06/07 04:12:07;;;;;;;24.30;21.97;;;19.70;99.90;;;20.13;59.27;101873.00;4933119;28;97341;-49
2021/06/07 04:14:33;;;;;;;21.93;19.67;;;19.70;99.90;;;20.16;59.18;101869.28;4963831;28;98493;-49
2021/06/07 04:16:59;;;;;;;23.90;21.37;;;19.80;99.90;;;20.17;58.95;101869.19;4927804;28;99168;-50
2021/06/07 04:19:25;;;;;;;22.53;20.17;;;19.80;99.90;;;20.19;59.06;101871.78;4933150;28;98620;-51
2021/06/07 04:21:52;;;;;;;23.67;19.77;;;19.80;99.90;;;20.19;58.98;101871.78;4927623;28;97483;-49
2021/06/07 04:24:18;;;;;;;23.73;21.37;;;19.80;99.90;;;20.17;59.66;101871.84;4940633;28;97359;-49
2021/06/07 04:26:44;;;;;;;24.77;21.47;;;19.80;99.90;;;20.14;59.19;101877.41;4935291;28;97128;-53
2021/06/07 04:29:10;;;;;;;23.20;20.77;;;19.70;99.90;;;20.16;59.15;101874.63;4940219;28;97585;-50
2021/06/07 04:31:35;;;;;;;26.17;23.37;;;19.80;99.90;;;20.14;59.94;101877.41;4934930;28;97061;-49
2021/06/07 04:36:29;;;;;;;22.40;19.10;;;19.80;99.90;;;20.16;59.11;101878.16;4880602;28;98050;-55
2021/06/07 04:38:55;;;;;;;23.30;20.90;;;19.80;99.90;;;20.17;59.27;101879.03;4889811;28;100735;-57
2021/06/07 04:41:21;;;;;;;26.00;23.33;;;19.80;99.90;;;20.14;59.23;101876.53;4893986;28;97364;-57
2021/06/07 04:43:47;;;;;;;23.57;21.23;;;19.70;99.90;;;20.11;60.51;101871.34;4892270;28;97331;-57
2021/06/07 04:46:13;;;;;;;24.97;22.30;;;19.70;99.90;;;20.14;59.48;101865.81;4872635;28;99309;-55
2021/06/07 04:48:39;;;;;;;24.73;22.20;;;19.80;99.90;;;20.13;59.86;101869.44;4869198;28;100402;-59
2021/06/07 04:51:05;;;;;;;24.27;21.43;;;19.70;99.90;;;20.13;59.18;101874.81;4894592;28;99785;-57
2021/06/07 04:53:31;;;;;;;20.27;18.37;;;19.70;99.90;;;20.14;59.35;101871.19;4888217;28;97004;-56
2021/06/07 04:55:57;;;;;;;24.53;21.83;;;19.80;99.90;;;20.15;59.02;101873.75;4889498;28;97411;-56
2021/06/07 04:58:28;;;;;;;25.60;22.33;;;19.80;99.90;;;20.15;59.33;101878.25;4878039;28;100644;-55
2021/06/07 05:00:57;;;;;;;24.13;21.53;;;19.80;99.90;;;20.16;58.96;101885.34;4906484;28;97037;-58
2021/06/07 05:03:28;;;;;;;22.23;20.20;;;19.80;99.90;;;20.14;62.03;101881.88;4881873;28;96958;-52
2021/06/07 05:05:55;;;;;;;23.53;21.03;;;19.80;99.90;;;20.12;59.78;101881.13;4900182;28;97219;-56
2021/06/07 05:08:25;;;;;;;21.00;18.90;;;19.70;99.90;;;20.13;59.82;101886.38;4888728;28;98693;-56
2021/06/07 05:10:52;;;;;;;23.80;21.40;;;19.70;99.90;;;20.12;59.99;101875.75;4886121;28;97005;-54
2021/06/07 05:13:18;;;;;;;15.37;13.87;;;19.70;99.90;;;20.14;59.49;101876.53;4888861;28;97256;-57
2021/06/07 05:15:44;;;;;;;24.87;22.23;;;19.80;99.90;;;20.11;61.47;101876.72;4908333;28;97709;-57
2021/06/07 05:18:11;;;;;;;24.47;21.33;;;19.70;99.90;;;20.02;61.45;101878.09;4924802;28;97054;-56
2021/06/07 05:20:37;;;;;;;16.40;14.83;;;19.70;99.90;;;20.07;59.61;101880.50;4926227;28;97997;-54
2021/06/07 05:23:04;;;;;;;12.87;11.67;;;19.70;99.90;;;20.13;59.81;101877.50;4903346;28;99568;-57
2021/06/07 05:25:33;;;;;;;7.10;6.50;;;19.80;99.90;;;20.17;58.93;101881.72;4911923;28;97481;-54
2021/06/07 05:28:01;;;;;;;21.87;19.67;;;19.80;99.90;;;20.19;59.86;101874.44;4902361;28;100867;-57
2021/06/07 05:30:29;;;;;;;17.50;15.73;;;19.90;99.90;;;20.23;58.97;101877.81;4893037;28;97407;-55
2021/06/07 05:32:56;;;;;;;22.60;20.20;;;19.90;99.90;;;20.25;59.26;101878.59;4908273;28;97196;-55
2021/06/07 05:35:26;;;;;;;22.93;20.53;;;20.00;99.90;;;20.24;59.80;101875.03;4904132;28;97107;-56
2021/06/07 05:37:52;;;;;;;12.40;11.17;;;19.90;99.90;;;20.29;58.58;101880.16;4893066;28;98552;-56
2021/06/07 05:40:20;;;;;;;18.37;16.60;;;20.00;99.90;;;20.29;59.16;101890.88;4911256;28;97424;-57
2021/06/07 05:42:48;;;;;;;16.10;14.30;;;20.00;99.90;;;20.30;59.00;101889.91;4892716;28;96997;-56
2021/06/07 05:45:15;;;;;;;17.87;16.17;;;20.00;99.90;;;20.30;58.96;101887.25;4910261;28;100100;-56
2021/06/07 05:47:42;;;;;;;21.80;19.63;;;20.00;99.90;;;20.35;58.21;101891.38;4908396;28;97463;-56
2021/06/07 05:50:15;;;;;;;23.90;21.47;;;20.10;99.90;;;20.33;60.09;101893.28;4912727;28;99676;-56
2021/06/07 05:52:47;;;;;;;10.60;9.60;;;20.10;99.90;;;20.35;58.62;101891.38;4924530;28;98536;-56
2021/06/07 05:55:23;;;;;;;12.17;11.07;;;20.10;99.90;;;20.39;58.07;101898.28;4911027;28;97280;-57
2021/06/07 05:57:53;;;;;;;21.57;18.70;;;20.20;99.90;;;20.37;60.88;101885.91;4894383;28;99818;-55
2021/06/07 06:00:24;;;;;;;16.90;12.90;;;20.20;99.90;;;20.43;58.16;101899.88;4919147;28;99142;-56
2021/06/07 06:02:50;;;;;;;5.67;5.17;;;20.20;99.90;;;20.48;58.09;101896.94;4909460;28;97196;-55
2021/06/07 06:05:17;;;;;;;6.30;5.70;;;20.30;99.90;;;20.53;57.51;101900.19;4917000;28;97462;-55
2021/06/07 06:07:44;;;;;;;17.60;15.87;;;20.40;99.90;;;20.56;58.63;101894.69;4904596;28;99843;-56
2021/06/07 06:10:12;;;;;;;18.17;16.43;;;20.50;99.90;;;20.55;57.93;101901.00;4908983;28;101680;-57
2021/06/07 06:12:39;;;;;;;6.77;6.17;;;20.40;99.90;;;20.59;57.61;101888.28;4909036;28;97268;-59
2021/06/07 06:15:07;;;;;;;13.40;12.07;;;20.40;99.90;;;20.56;58.52;101892.00;4897008;28;97412;-56
2021/06/07 06:17:33;;;;;;;6.90;6.30;;;20.30;99.90;;;20.57;57.61;101890.19;4912442;28;97788;-57
2021/06/07 06:19:59;;;;;;;19.37;17.47;;;20.40;99.90;;;20.53;59.58;101899.34;4909526;28;97293;-57
2021/06/07 06:22:25;;;;;;;15.10;13.60;;;20.30;99.90;;;20.49;57.93;101894.16;4905723;28;104996;-57
2021/06/07 06:24:51;;;;;;;16.30;14.60;;;20.20;99.90;;;20.56;58.18;101893.81;4904062;28;96809;-57
2021/06/07 06:27:17;;;;;;;19.30;17.40;;;20.40;99.90;;;20.58;57.46;101897.28;4903718;28;97662;-57
2021/06/07 06:29:43;;;;;;;5.83;5.33;;;20.40;99.90;;;20.62;57.19;101893.44;4904988;28;98022;-56
2021/06/07 06:32:11;;;;;;;21.17;18.93;;;20.50;99.90;;;20.64;57.96;101897.75;4907234;28;97548;-57
2021/06/07 06:34:39;;;;;;;20.40;18.40;;;20.50;99.90;;;20.61;57.91;101903.31;4929174;28;101065;-55
2021/06/07 06:37:06;;;;;;;22.50;20.20;;;20.40;99.90;;;20.53;60.20;101900.19;4889098;28;105085;-56
2021/06/07 06:39:33;;;;;;;23.13;20.73;;;20.40;99.90;;;20.43;61.00;101893.66;4910653;28;97113;-57
2021/06/07 06:41:59;;;;;;;16.73;15.00;;;20.20;99.90;;;20.48;57.81;101903.16;4901888;28;97329;-55
2021/06/07 06:44:26;;;;;;;24.03;21.43;;;20.20;99.90;;;20.50;57.87;101901.25;4896521;28;97745;-57
2021/06/07 06:46:52;;;;;;;24.50;21.70;;;20.30;99.90;;;20.57;57.40;101895.56;4905876;28;99499;-56
2021/06/07 06:49:18;;;;;;;23.87;21.47;;;20.40;99.90;;;20.55;59.87;101897.47;4912366;28;97333;-56
2021/06/07 06:51:43;;;;;;;24.63;21.13;;;20.50;99.90;;;20.61;57.77;101899.78;4903624;28;97576;-52
2021/06/07 06:54:09;;;;;;;26.87;23.37;;;20.50;99.90;;;20.56;59.12;101893.81;4911091;28;98362;-55
2021/06/07 06:56:35;;;;;;;27.60;24.67;;;20.40;99.90;;;20.52;58.49;101898.47;4913200;28;98196;-55
2021/06/07 06:59:02;;;;;;;27.93;24.93;;;20.30;99.90;;;20.45;61.36;101902.47;4915923;28;98271;-57
2021/06/07 07:01:28;;;;;;;32.47;26.80;;;20.20;99.90;;;20.37;61.24;101904.69;4915551;28;99616;-55
2021/06/07 07:03:54;;;;;;;31.43;27.07;;;20.20;99.90;;;20.28;61.51;101906.09;4902064;28;102475;-56
2021/06/07 07:06:20;;;;;;;32.17;27.60;;;20.00;99.90;;;20.22;60.17;101903.75;4914332;28;97410;-57
2021/06/07 07:08:46;;;;;;;32.07;28.07;;;19.90;99.90;;;20.18;61.29;101905.72;4905601;28;96909;-56
2021/06/07 07:11:12;;;;;;;33.73;28.27;;;19.90;99.90;;;20.25;59.29;101900.88;4897754;28;99501;-54
2021/06/07 07:13:41;;;;;;;30.93;27.63;;;20.10;99.90;;;20.26;61.04;101899.97;4909452;28;97020;-56
2021/06/07 07:16:06;;;;;;;29.73;25.90;;;20.10;99.90;;;20.27;61.83;101909.72;4910754;28;110912;-57
2021/06/07 07:18:32;;;;;;;33.17;29.13;;;20.10;99.90;;;20.28;60.52;101900.72;4904928;28;105759;-53
2021/06/07 07:20:58;;;;;;;34.77;28.77;;;20.10;99.90;;;20.33;59.26;101909.34;4909965;28;97529;-57
2021/06/07 07:23:24;;;;;;;33.23;27.30;;;20.10;99.90;;;20.41;58.80;101906.25;4906982;28;97240;-57
2021/06/07 07:25:50;;;;;;;35.50;29.37;;;20.30;99.90;;;20.44;59.40;101912.34;4905390;28;97012;-55
2021/06/07 07:28:17;;;;;;;30.93;27.43;;;20.40;99.90;;;20.43;58.26;101909.75;4908549;28;97550;-57
2021/06/07 07:30:44;;;;;;;31.53;27.27;;;20.30;99.90;;;20.48;59.50;101915.69;4894785;28;97579;-55
2021/06/07 07:33:11;;;;;;;32.20;27.07;;;20.40;99.90;;;20.53;57.75;101915.41;4911840;28;97160;-56
2021/06/07 07:35:37;;;;;;;33.30;28.00;;;20.50;99.90;;;20.48;60.38;101919.22;4909508;28;155657;-56
2021/06/07 07:38:04;;;;;;;35.17;27.97;;;20.40;99.90;;;20.51;60.44;101923.56;4912058;28;103566;-56
2021/06/07 07:40:30;;;;;;;37.27;28.73;;;20.30;99.90;;;20.49;60.77;101915.59;4907025;28;97066;-57
2021/06/07 07:42:57;;;;;;;21.27;18.97;;;20.30;99.90;;;20.52;58.66;101924.41;4913892;28;97200;-57
2021/06/07 07:45:26;;;;;;;33.80;27.67;;;20.40;99.90;;;20.48;61.31;101919.22;4919357;28;98660;-57
2021/06/07 07:47:58;;;;;;;13.00;11.17;;;20.40;99.90;;;20.50;59.02;101922.69;4911412;28;97975;-58
2021/06/07 07:50:27;;;;;;;34.50;26.93;;;20.30;99.90;;;20.58;59.24;101914.22;4918213;28;97917;-56
2021/06/07 07:52:53;;;;;;;34.10;25.53;;;20.50;99.90;;;20.59;59.31;101917.75;4910404;28;98405;-57
2021/06/07 07:55:26;;;;;;;28.07;24.73;;;20.50;99.90;;;20.61;60.93;101915.84;4907156;28;98143;-57
2021/06/07 07:57:53;;;;;;;29.03;22.40;;;20.50;99.90;;;20.58;61.21;101913.34;4896623;28;99137;-57
2021/06/07 08:00:23;;;;;;;30.10;26.17;;;20.50;99.90;;;20.59;59.49;101909.72;4892136;28;96857;-58
2021/06/07 08:02:49;;;;;;;30.73;26.20;;;20.40;99.90;;;20.61;58.07;101913.19;4908113;28;97531;-53
2021/06/07 08:05:15;;;;;;;30.77;25.37;;;20.50;99.90;;;20.62;58.27;101914.91;4899455;28;97811;-55
2021/06/07 08:07:41;;;;;;;33.80;24.87;;;20.50;99.90;;;20.62;60.13;101917.59;4909473;28;97955;-56
2021/06/07 08:10:08;;;;;;;29.93;23.67;;;20.50;99.90;;;20.55;60.67;101909.03;4923079;28;96831;-56
2021/06/07 08:12:35;;;;;;;33.17;24.10;;;20.50;99.90;;;20.44;62.58;101911.47;4909125;28;97003;-58
2021/06/07 08:15:03;;;;;;;23.97;21.33;;;20.20;99.90;;;20.38;61.41;101918.00;4909360;28;98156;-58
2021/06/07 08:17:29;;;;;;;25.90;22.70;;;20.20;99.90;;;20.35;61.80;101911.94;4906813;28;98025;-59
2021/06/07 08:19:54;;;;;;;25.53;22.27;;;20.10;99.90;;;20.33;59.50;101905.81;4909581;28;98171;-54
2021/06/07 08:22:20;;;;;;;26.97;24.10;;;20.10;99.90;;;20.35;59.65;101910.13;4917629;28;96912;-57
2021/06/07 08:24:46;;;;;;;28.70;24.37;;;20.20;99.90;;;20.35;61.19;101911.94;4907532;28;97022;-57
2021/06/07 08:27:12;;;;;;;26.77;22.57;;;20.20;99.90;;;20.35;61.23;101911.94;4909493;28;98247;-57
2021/06/07 08:29:38;;;;;;;25.50;22.73;;;20.20;99.90;;;20.33;60.51;101914.72;4910004;28;97573;-62
2021/06/07 08:32:06;;;;;;;29.13;21.97;;;20.20;99.90;;;20.33;61.10;101909.34;4907062;28;97633;-57
2021/06/07 08:34:32;;;;;;;23.83;21.17;;;20.20;99.90;;;20.32;60.91;101914.81;4896643;28;97474;-56
2021/06/07 08:36:59;;;;;;;26.23;22.07;;;20.20;99.90;;;20.32;61.48;101902.28;4891077;28;97654;-55
2021/06/07 08:39:25;;;;;;;23.50;20.17;;;20.20;99.90;;;20.35;61.65;101917.31;4912586;28;97249;-54
2021/06/07 08:41:51;;;;;;;22.00;19.67;;;20.20;99.90;;;20.31;61.22;101905.91;4905935;28;96953;-56
2021/06/07 08:44:16;;;;;;;23.70;20.43;;;20.10;99.90;;;20.29;61.86;101912.31;4911990;28;100966;-58
2021/06/07 08:46:47;;;;;;;22.37;20.03;;;20.10;99.90;;;20.33;60.13;101913.84;4910009;28;97440;-56
2021/06/07 08:49:13;;;;;;;23.83;20.03;;;20.20;99.90;;;20.29;61.01;101915.84;4899597;28;98740;-57
2021/06/07 08:51:39;;;;;;;23.37;19.43;;;20.10;99.90;;;20.31;60.72;101916.63;4907070;28;98386;-61
2021/06/07 08:54:06;;;;;;;22.70;19.90;;;20.10;99.90;;;20.33;61.76;101914.72;4894505;28;99250;-57
2021/06/07 08:56:32;;;;;;;22.73;19.97;;;20.20;99.90;;;20.37;61.07;101913.59;4907064;28;99589;-58
2021/06/07 08:58:58;;;;;;;23.27;20.73;;;20.20;99.90;;;20.39;61.01;101911.69;4910972;28;99318;-58
2021/06/07 09:01:24;;;;;;;23.27;20.23;;;20.30;99.90;;;20.37;62.67;101910.91;4907376;28;97539;-55
2021/06/07 09:03:49;;;;;;;24.30;20.63;;;20.20;99.90;;;20.41;61.54;101904.47;4907332;28;103998;-57
2021/06/07 09:06:25;;;;;;;23.13;19.97;;;20.30;99.90;;;20.41;62.00;101904.47;4897615;28;97350;-57
2021/06/07 09:09:04;;;;;;;20.20;18.10;;;20.20;99.90;;;20.47;60.19;101896.06;4891055;28;97357;-57
2021/06/07 09:11:56;;;;;;;24.13;21.70;;;20.30;99.90;;;20.48;62.55;101907.66;4913616;28;97119;-55
2021/06/07 09:14:30;;;;;;;27.60;22.93;;;20.30;99.90;;;20.49;62.07;101910.25;4909737;28;100395;-58
2021/06/07 09:16:57;;;;;;;25.57;22.77;;;20.30;99.90;;;20.48;63.20;101911.19;4912283;28;102207;-56
2021/06/07 09:19:31;;;;;;;14.77;13.37;;;20.30;99.90;;;20.53;61.61;101905.56;4916028;28;97113;-58
2021/06/07 09:22:30;;;;;;;26.63;22.43;;;20.40;99.90;;;20.64;60.56;101910.31;4893443;28;97367;-55
2021/06/07 09:25:15;;;;;;;24.87;22.20;;;20.50;99.90;;;20.65;61.90;101909.34;4910233;28;97229;-54
2021/06/07 09:28:11;;;;;;;33.17;26.00;;;20.50;99.90;;;20.67;63.12;101907.44;4904754;28;99258;-55
2021/06/07 09:30:47;;;;;;;28.27;22.67;;;20.50;99.90;;;20.71;61.00;101914.38;4893558;28;97530;-57
2021/06/07 09:33:40;;;;;;;11.00;9.90;;;20.60;99.90;;;20.76;58.85;101906.91;4912870;28;98600;-55
2021/06/07 09:36:14;;;;;;;27.53;24.20;;;20.60;99.90;;;20.77;58.03;101908.63;4905383;28;104851;-56
2021/06/07 09:39:07;;;;;;;28.80;23.97;;;20.70;99.90;;;20.82;57.99;101911.03;4908464;28;97054;-57
2021/06/07 09:41:56;;;;;;;28.83;24.90;;;20.70;99.90;;;20.83;57.78;101907.41;4912728;28;97420;-53
2021/06/07 09:44:36;;;;;;;29.77;25.30;;;20.70;99.90;;;20.86;59.91;101910.78;4912431;28;97385;-56
2021/06/07 09:47:07;;;;;;;29.50;26.07;;;20.80;99.90;;;20.85;61.11;101917.13;4907795;28;97919;-56
2021/06/07 09:49:46;;;;;;;32.20;26.23;;;20.80;99.90;;;20.88;60.58;101916.94;4910845;28;102807;-56
2021/06/07 09:52:53;;;;;;;31.37;26.80;;;20.80;99.90;;;20.83;61.82;101912.78;4909444;28;97355;-54
2021/06/07 09:55:24;;;;;;;31.50;26.57;;;20.70;99.90;;;20.79;61.49;101917.47;4910760;28;98774;-57
2021/06/07 09:57:54;;;;;;;27.17;23.10;;;20.70;99.90;;;20.85;58.07;101921.63;4909365;28;97859;-55
2021/06/07 10:00:49;;;;;;;14.73;13.37;;;20.70;99.90;;;20.91;58.90;101916.75;4911110;28;97051;-55
2021/06/07 10:03:44;;;;;;;11.40;10.30;;;20.90;99.90;;;20.91;56.78;101911.38;4911395;28;99008;-57
2021/06/07 10:06:33;;;;;;;25.73;20.70;;;20.90;99.90;;;21.00;56.49;101910.84;4906145;28;98149;-56
2021/06/07 10:09:04;;;;;;;26.20;22.60;;;21.00;99.90;;;21.01;57.83;101911.69;4906309;28;97601;-58
2021/06/07 10:11:40;;;;;;;14.43;12.90;;;21.00;99.90;;;21.02;56.25;101916.97;4896206;28;98468;-57